Time;durP1;ratioP1;P1;durP2;ratioP2;P2;SDS_P1;SDS_P2;PMS_P1;PMS_P2;Temp;Humidity;BMP_temperature;BMP_pressure;BME280_temperature;BME280_humidity;BME280_pressure;Samples;Min_cycle;Max_cycle;Signal;HPM_P1;HPM_P2
2021/12/16 00:03:02;;;;;;;24.48;13.27;;;;;;;;;;5039336;28;20130;-79
2021/12/16 00:05:49;;;;;;;24.90;13.18;;;;;;;;;;5032872;28;20107;-79
2021/12/16 00:08:20;;;;;;;23.80;13.23;;;;;;;;;;5035878;28;20052;-79
2021/12/16 00:10:54;;;;;;;24.60;12.75;;;;;;;;;;5034923;28;20079;-79
2021/12/16 00:30:08;;;;;;;21.50;13.48;;;;;;;;;;5035870;28;20053;-79
2021/12/16 00:32:45;;;;;;;24.00;14.23;;;;;;;;;;5030660;28;20103;-79
2021/12/16 00:35:12;;;;;;;22.75;12.85;;;;;;;;;;5038747;28;20049;-78
2021/12/16 00:37:40;;;;;;;24.85;12.65;;;;;;;;;;5041910;28;20059;-78
2021/12/16 00:40:09;;;;;;;22.88;12.43;;;;;;;;;;5040306;28;20160;-78
2021/12/16 00:42:44;;;;;;;23.52;12.68;;;;;;;;;;5036141;28;20081;-79
2021/12/16 00:45:32;;;;;;;20.63;12.52;;;;;;;;;;5039452;28;20056;-78
2021/12/16 00:48:02;;;;;;;21.83;12.90;;;;;;;;;;5037667;28;20045;-80
2021/12/16 00:56:00;;;;;;;20.73;12.05;;;;;;;;;;5038786;28;20136;-79
2021/12/16 00:58:35;;;;;;;16.85;9.82;;;;;;;;;;5038092;28;20045;-79
2021/12/16 01:01:10;;;;;;;17.23;10.05;;;;;;;;;;5036136;28;21411;-79
2021/12/16 01:03:44;;;;;;;17.60;10.45;;;;;;;;;;5034705;28;20041;-78
2021/12/16 01:06:30;;;;;;;16.83;10.80;;;;;;;;;;5033854;28;20049;-79
2021/12/16 01:34:01;;;;;;;20.73;11.77;;;;;;;;;;5025539;28;20100;-79
2021/12/16 01:47:46;;;;;;;17.95;10.30;;;;;;;;;;5033623;28;20172;-79
2021/12/16 01:50:18;;;;;;;19.38;10.27;;;;;;;;;;5032391;28;20068;-79
2021/12/16 01:55:38;;;;;;;17.55;10.73;;;;;;;;;;5030192;28;20050;-79
2021/12/16 01:58:13;;;;;;;15.00;9.55;;;;;;;;;;5038581;28;20049;-79
2021/12/16 02:00:53;;;;;;;17.17;9.60;;;;;;;;;;5042311;28;20055;-81
2021/12/16 02:03:26;;;;;;;17.05;9.55;;;;;;;;;;5038348;28;20108;-80
2021/12/16 02:06:02;;;;;;;15.52;9.05;;;;;;;;;;5038350;28;20095;-79
2021/12/16 02:08:33;;;;;;;17.85;10.77;;;;;;;;;;5033336;28;20137;-79
2021/12/16 02:11:14;;;;;;;18.42;10.82;;;;;;;;;;5035447;28;20050;-79
2021/12/16 02:27:49;;;;;;;14.38;8.45;;;;;;;;;;5034297;28;20114;-79
2021/12/16 02:33:24;;;;;;;11.20;6.70;;;;;;;;;;5036899;28;20048;-80
2021/12/16 02:36:01;;;;;;;10.48;6.50;;;;;;;;;;5038105;28;20049;-79
2021/12/16 02:38:33;;;;;;;12.77;7.15;;;;;;;;;;5039426;28;20048;-79
2021/12/16 02:41:00;;;;;;;10.48;6.47;;;;;;;;;;5038977;28;20477;-79
2021/12/16 02:43:54;;;;;;;11.43;7.00;;;;;;;;;;5035949;28;20042;-80
2021/12/16 02:49:05;;;;;;;12.27;7.20;;;;;;;;;;5041728;28;20413;-80
2021/12/16 02:51:32;;;;;;;12.18;7.00;;;;;;;;;;5037112;28;20080;-79
2021/12/16 02:54:04;;;;;;;10.40;6.55;;;;;;;;;;5038329;28;20077;-79
2021/12/16 02:56:31;;;;;;;10.88;6.32;;;;;;;;;;5035752;28;20049;-80
2021/12/16 02:58:59;;;;;;;14.88;7.60;;;;;;;;;;5038582;28;20065;-79
2021/12/16 03:01:29;;;;;;;13.30;7.20;;;;;;;;;;5030764;28;20049;-78
2021/12/16 03:03:57;;;;;;;13.68;7.60;;;;;;;;;;5031713;28;20049;-79
2021/12/16 03:06:26;;;;;;;13.82;7.82;;;;;;;;;;5036443;28;20760;-78
2021/12/16 03:08:53;;;;;;;11.85;7.15;;;;;;;;;;5034676;28;20115;-78
2021/12/16 03:11:25;;;;;;;11.23;6.32;;;;;;;;;;5034294;28;20628;-78
2021/12/16 03:14:15;;;;;;;13.10;7.57;;;;;;;;;;5034868;28;20045;-79
2021/12/16 03:16:53;;;;;;;10.05;6.03;;;;;;;;;;5031264;28;20417;-79
2021/12/16 03:19:27;;;;;;;11.30;6.97;;;;;;;;;;5030624;28;20038;-79
2021/12/16 03:21:57;;;;;;;13.15;7.90;;;;;;;;;;5032038;28;20074;-79
2021/12/16 03:24:53;;;;;;;13.60;9.18;;;;;;;;;;5035150;28;20405;-78
2021/12/16 03:27:39;;;;;;;12.90;8.30;;;;;;;;;;5031839;28;20038;-79
2021/12/16 03:30:46;;;;;;;14.23;9.03;;;;;;;;;;5030410;28;20441;-79
2021/12/16 03:36:05;;;;;;;13.23;8.75;;;;;;;;;;5032744;28;20056;-79
2021/12/16 03:38:32;;;;;;;12.52;7.93;;;;;;;;;;5032398;28;20103;-79
2021/12/16 03:40:59;;;;;;;11.48;6.60;;;;;;;;;;5036182;28;20075;-78
2021/12/16 03:43:29;;;;;;;10.43;6.05;;;;;;;;;;5032912;28;20132;-78
2021/12/16 03:48:46;;;;;;;9.25;5.53;;;;;;;;;;5031974;28;20064;-78
2021/12/16 03:51:18;;;;;;;10.95;5.93;;;;;;;;;;5032359;28;20521;-79
2021/12/16 03:53:49;;;;;;;9.43;6.05;;;;;;;;;;5032971;28;20426;-80
2021/12/16 03:56:16;;;;;;;11.07;6.25;;;;;;;;;;5034001;28;20107;-79
2021/12/16 03:58:45;;;;;;;10.50;6.22;;;;;;;;;;5025911;28;20073;-79
2021/12/16 04:01:14;;;;;;;8.68;5.03;;;;;;;;;;5030769;28;20498;-79
2021/12/16 04:03:41;;;;;;;8.82;4.82;;;;;;;;;;5033353;28;20068;-79
2021/12/16 04:06:09;;;;;;;9.57;5.28;;;;;;;;;;5044401;28;20524;-79
2021/12/16 04:08:36;;;;;;;9.07;5.45;;;;;;;;;;5035264;28;20448;-79
2021/12/16 04:11:08;;;;;;;7.72;4.68;;;;;;;;;;5034788;28;20077;-79
2021/12/16 04:13:41;;;;;;;9.73;5.78;;;;;;;;;;5035649;28;20543;-78
2021/12/16 04:16:10;;;;;;;10.48;6.18;;;;;;;;;;5029324;28;20052;-78
2021/12/16 04:18:36;;;;;;;9.32;5.95;;;;;;;;;;5029127;28;20072;-78
2021/12/16 04:21:03;;;;;;;9.25;5.07;;;;;;;;;;5035797;28;20540;-79
2021/12/16 04:23:29;;;;;;;9.90;5.97;;;;;;;;;;5037122;28;20071;-79
2021/12/16 04:25:56;;;;;;;8.77;5.50;;;;;;;;;;5036062;28;20073;-79
2021/12/16 04:28:26;;;;;;;11.32;6.40;;;;;;;;;;5036304;28;20095;-79
2021/12/16 04:30:54;;;;;;;9.63;5.60;;;;;;;;;;5036782;28;20093;-79
2021/12/16 04:33:22;;;;;;;9.65;5.53;;;;;;;;;;5033741;28;20644;-79
2021/12/16 04:35:49;;;;;;;10.45;6.13;;;;;;;;;;5032629;28;20088;-79
2021/12/16 04:38:16;;;;;;;12.38;6.80;;;;;;;;;;5034597;28;20073;-79
2021/12/16 04:40:46;;;;;;;13.52;7.40;;;;;;;;;;5030753;28;20053;-80
2021/12/16 04:43:19;;;;;;;11.57;6.50;;;;;;;;;;5041642;28;20080;-79
2021/12/16 04:45:46;;;;;;;12.73;7.45;;;;;;;;;;5032930;28;20046;-80
2021/12/16 04:48:13;;;;;;;16.08;8.50;;;;;;;;;;5033800;28;20118;-80
2021/12/16 04:50:41;;;;;;;33.17;15.57;;;;;;;;;;5037367;28;20088;-79
2021/12/16 04:53:07;;;;;;;19.00;10.35;;;;;;;;;;5034004;28;20153;-79
2021/12/16 04:55:34;;;;;;;13.55;8.55;;;;;;;;;;5029748;28;20097;-80
2021/12/16 04:58:00;;;;;;;11.93;7.38;;;;;;;;;;5032837;28;20535;-79
2021/12/16 05:00:27;;;;;;;14.23;6.82;;;;;;;;;;5033517;28;20077;-80
2021/12/16 05:02:54;;;;;;;12.32;7.70;;;;;;;;;;5035572;28;20045;-80
2021/12/16 05:05:21;;;;;;;12.15;7.18;;;;;;;;;;5032323;28;20057;-81
2021/12/16 05:07:49;;;;;;;13.05;7.20;;;;;;;;;;5031859;28;20108;-80
2021/12/16 05:10:17;;;;;;;12.65;7.15;;;;;;;;;;5032586;28;20049;-79
2021/12/16 05:12:48;;;;;;;14.05;7.63;;;;;;;;;;5035180;28;20037;-80
2021/12/16 05:15:17;;;;;;;15.77;8.98;;;;;;;;;;5034601;28;20111;-80
2021/12/16 05:17:47;;;;;;;13.10;7.18;;;;;;;;;;5033499;28;20064;-79
2021/12/16 05:20:17;;;;;;;10.93;6.45;;;;;;;;;;5031434;28;20061;-80
2021/12/16 05:25:44;;;;;;;10.37;6.00;;;;;;;;;;5034238;28;20056;-80
2021/12/16 05:28:11;;;;;;;10.93;6.35;;;;;;;;;;5034875;28;20080;-79
2021/12/16 05:30:37;;;;;;;12.52;7.03;;;;;;;;;;5030438;28;20072;-79
2021/12/16 05:33:05;;;;;;;13.52;7.28;;;;;;;;;;5033470;28;20077;-79
2021/12/16 05:35:32;;;;;;;11.93;6.55;;;;;;;;;;5035927;28;20080;-79
2021/12/16 05:37:59;;;;;;;15.10;7.60;;;;;;;;;;5033669;28;20081;-79
2021/12/16 05:40:28;;;;;;;14.20;8.00;;;;;;;;;;5041839;28;20083;-80
2021/12/16 05:42:58;;;;;;;15.02;8.05;;;;;;;;;;5032915;28;20077;-79
2021/12/16 05:45:25;;;;;;;13.00;7.43;;;;;;;;;;5030761;28;20083;-79
2021/12/16 05:47:52;;;;;;;13.18;7.85;;;;;;;;;;5031467;28;20048;-79
2021/12/16 05:50:19;;;;;;;13.48;7.43;;;;;;;;;;5029480;28;20053;-80
2021/12/16 05:52:45;;;;;;;13.90;7.20;;;;;;;;;;5028173;28;20056;-79
2021/12/16 05:55:13;;;;;;;13.18;7.13;;;;;;;;;;5028330;28;20453;-79
2021/12/16 05:57:41;;;;;;;12.35;7.15;;;;;;;;;;5031075;28;20089;-79
2021/12/16 06:00:16;;;;;;;13.00;6.82;;;;;;;;;;5028899;28;20076;-80
2021/12/16 06:02:44;;;;;;;10.20;6.15;;;;;;;;;;5029577;28;20076;-80
2021/12/16 06:05:10;;;;;;;12.32;6.45;;;;;;;;;;5034101;28;20123;-81
2021/12/16 06:07:37;;;;;;;12.55;6.65;;;;;;;;;;5032362;28;20065;-80
2021/12/16 06:10:06;;;;;;;13.13;7.38;;;;;;;;;;5034089;28;20076;-80
2021/12/16 06:12:33;;;;;;;12.48;6.53;;;;;;;;;;5030610;28;20073;-79
2021/12/16 06:15:15;;;;;;;16.33;7.65;;;;;;;;;;5033252;28;20044;-80
2021/12/16 06:28:40;;;;;;;15.45;6.53;;;;;;;;;;5038284;28;20065;-81
2021/12/16 06:31:07;;;;;;;12.60;6.68;;;;;;;;;;5039278;28;20045;-80
2021/12/16 06:33:35;;;;;;;12.23;6.65;;;;;;;;;;5036886;28;20053;-79
2021/12/16 06:36:01;;;;;;;12.85;6.18;;;;;;;;;;5032481;28;20058;-81
2021/12/16 06:38:29;;;;;;;13.02;5.70;;;;;;;;;;5032165;28;20050;-81
2021/12/16 06:40:57;;;;;;;13.10;6.90;;;;;;;;;;5036857;28;20033;-82
2021/12/16 06:43:35;;;;;;;15.70;7.75;;;;;;;;;;5035686;28;20071;-83
2021/12/16 06:46:05;;;;;;;14.30;7.45;;;;;;;;;;5032450;28;20037;-83
2021/12/16 06:48:45;;;;;;;11.95;6.30;;;;;;;;;;5030201;28;20482;-82
2021/12/16 06:51:19;;;;;;;17.17;6.97;;;;;;;;;;5035585;28;20110;-83
2021/12/16 06:53:51;;;;;;;15.65;7.20;;;;;;;;;;5033594;28;20050;-81
2021/12/16 06:56:24;;;;;;;23.63;7.47;;;;;;;;;;5033531;28;20057;-81
2021/12/16 06:59:02;;;;;;;15.02;6.47;;;;;;;;;;5034210;28;20091;-81
2021/12/16 07:01:38;;;;;;;11.75;5.80;;;;;;;;;;5032044;28;20052;-81
2021/12/16 07:04:08;;;;;;;15.85;6.10;;;;;;;;;;5032036;28;20052;-81
2021/12/16 07:06:38;;;;;;;9.25;4.95;;;;;;;;;;5034551;28;20053;-81
2021/12/16 07:09:13;;;;;;;10.15;5.63;;;;;;;;;;5032941;28;20042;-81
2021/12/16 07:11:43;;;;;;;13.23;6.05;;;;;;;;;;5033305;28;20100;-82
2021/12/16 07:14:13;;;;;;;11.10;6.05;;;;;;;;;;5034497;28;20061;-82
2021/12/16 07:16:41;;;;;;;10.05;5.30;;;;;;;;;;5031101;28;20452;-81
2021/12/16 07:19:12;;;;;;;11.85;5.82;;;;;;;;;;5030016;28;20076;-82
2021/12/16 07:21:41;;;;;;;16.52;6.55;;;;;;;;;;5033438;28;20045;-81
2021/12/16 07:24:12;;;;;;;53.58;8.77;;;;;;;;;;5035016;28;20050;-82
2021/12/16 07:26:39;;;;;;;14.73;6.55;;;;;;;;;;5033288;28;20119;-82
2021/12/16 07:29:16;;;;;;;15.10;6.25;;;;;;;;;;5030736;28;20486;-81
2021/12/16 07:31:42;;;;;;;11.57;5.70;;;;;;;;;;5031633;28;20048;-81
2021/12/16 07:34:13;;;;;;;11.88;6.18;;;;;;;;;;5033491;28;20513;-82
2021/12/16 07:36:42;;;;;;;11.95;5.63;;;;;;;;;;5035047;28;20493;-82
2021/12/16 07:39:15;;;;;;;16.05;6.32;;;;;;;;;;5032904;28;20484;-83
2021/12/16 07:41:56;;;;;;;;;;;;;;;;;;;;;
2021/12/16 07:44:33;;;;;;;;;;;;;;;;;;;;;
2021/12/16 07:47:05;;;;;;;11.05;5.32;;;;;;;;;;5030865;28;20060;-83
2021/12/16 07:49:36;;;;;;;11.02;6.32;;;;;;;;;;5037795;28;20057;-82
2021/12/16 07:52:10;;;;;;;9.80;5.55;;;;;;;;;;5033927;28;20048;-82
2021/12/16 07:54:37;;;;;;;12.20;6.25;;;;;;;;;;5031461;28;20045;-83
2021/12/16 07:57:15;;;;;;;8.93;5.63;;;;;;;;;;5030043;28;20454;-82
2021/12/16 07:59:42;;;;;;;13.88;7.00;;;;;;;;;;5032207;28;20123;-82
2021/12/16 08:02:11;;;;;;;21.02;9.23;;;;;;;;;;5035546;28;20053;-83
2021/12/16 08:04:45;;;;;;;23.58;7.13;;;;;;;;;;5031384;28;20073;-83
2021/12/16 08:07:17;;;;;;;17.17;6.57;;;;;;;;;;5031173;28;20112;-82
2021/12/16 08:09:45;;;;;;;14.68;6.47;;;;;;;;;;5032727;28;20069;-82
2021/12/16 08:12:14;;;;;;;13.25;6.35;;;;;;;;;;5034602;28;20076;-83
2021/12/16 08:14:45;;;;;;;11.63;6.15;;;;;;;;;;5032299;28;20145;-84
2021/12/16 08:17:12;;;;;;;12.98;6.70;;;;;;;;;;5036083;28;20041;-81
2021/12/16 08:19:40;;;;;;;12.65;6.70;;;;;;;;;;5031215;28;20045;-81
2021/12/16 08:22:08;;;;;;;10.18;5.75;;;;;;;;;;5033364;28;20095;-83
2021/12/16 08:24:35;;;;;;;11.63;6.07;;;;;;;;;;5032142;28;20087;-82
2021/12/16 08:27:04;;;;;;;13.02;7.30;;;;;;;;;;5030330;28;20108;-82
2021/12/16 08:29:31;;;;;;;12.05;7.30;;;;;;;;;;5030920;28;20057;-82
2021/12/16 08:31:58;;;;;;;11.00;5.95;;;;;;;;;;5033067;28;20456;-82
2021/12/16 08:34:46;;;;;;;11.75;6.65;;;;;;;;;;5030146;28;20056;-83
2021/12/16 08:37:18;;;;;;;14.00;7.53;;;;;;;;;;5002672;28;20049;-84
2021/12/16 08:39:51;;;;;;;12.50;7.47;;;;;;;;;;5035100;28;20052;-82
2021/12/16 08:42:18;;;;;;;13.30;6.85;;;;;;;;;;5034117;28;20046;-83
2021/12/16 08:44:45;;;;;;;14.52;7.15;;;;;;;;;;5032173;28;20050;-83
2021/12/16 08:47:17;;;;;;;19.15;10.55;;;;;;;;;;5030218;28;20049;-83
2021/12/16 08:49:44;;;;;;;21.05;10.05;;;;;;;;;;5032649;28;20046;-82
2021/12/16 08:52:17;;;;;;;19.95;11.02;;;;;;;;;;5032451;28;20089;-82
2021/12/16 08:54:44;;;;;;;25.75;11.43;;;;;;;;;;5028896;28;20567;-82
2021/12/16 08:57:12;;;;;;;15.60;9.20;;;;;;;;;;5034364;28;20057;-80
2021/12/16 08:59:39;;;;;;;14.68;8.25;;;;;;;;;;5033755;28;20052;-81
2021/12/16 09:02:08;;;;;;;14.13;7.78;;;;;;;;;;5031999;28;20102;-82
2021/12/16 09:04:37;;;;;;;18.58;8.85;;;;;;;;;;5031374;28;20159;-83
2021/12/16 09:07:07;;;;;;;15.65;8.77;;;;;;;;;;5033375;28;20053;-82
2021/12/16 09:09:36;;;;;;;17.58;8.77;;;;;;;;;;5030584;28;20069;-83
2021/12/16 09:12:13;;;;;;;20.50;8.55;;;;;;;;;;5033120;28;20049;-82
2021/12/16 09:14:41;;;;;;;18.05;8.73;;;;;;;;;;5031138;28;20051;-82
2021/12/16 09:17:12;;;;;;;18.08;9.32;;;;;;;;;;5033124;28;20053;-81
2021/12/16 09:19:39;;;;;;;14.32;8.50;;;;;;;;;;5031320;28;20076;-81
2021/12/16 09:22:06;;;;;;;15.23;8.98;;;;;;;;;;5032182;28;20046;-82
2021/12/16 09:24:34;;;;;;;16.02;8.45;;;;;;;;;;5030929;28;20547;-81
2021/12/16 09:27:01;;;;;;;18.48;9.52;;;;;;;;;;5033866;28;20084;-81
2021/12/16 09:29:28;;;;;;;15.70;9.13;;;;;;;;;;5030953;28;20061;-81
2021/12/16 09:31:54;;;;;;;16.55;9.20;;;;;;;;;;5032039;28;20072;-81
2021/12/16 09:34:21;;;;;;;15.10;8.50;;;;;;;;;;5032956;28;20050;-81
2021/12/16 09:36:48;;;;;;;14.18;8.25;;;;;;;;;;5036287;28;20080;-82
2021/12/16 09:39:17;;;;;;;16.80;8.05;;;;;;;;;;5032761;28;20479;-82
2021/12/16 09:41:48;;;;;;;15.10;8.55;;;;;;;;;;5033582;28;20042;-81
2021/12/16 09:44:14;;;;;;;17.65;9.35;;;;;;;;;;5032614;28;20052;-82
2021/12/16 09:46:44;;;;;;;13.82;8.10;;;;;;;;;;5032904;28;20362;-82
2021/12/16 09:49:10;;;;;;;16.02;9.07;;;;;;;;;;5032368;28;20119;-81
2021/12/16 09:51:41;;;;;;;17.65;9.43;;;;;;;;;;5030774;28;20042;-83
2021/12/16 09:54:10;;;;;;;15.35;8.93;;;;;;;;;;5032605;28;20060;-82
2021/12/16 09:56:38;;;;;;;16.15;8.52;;;;;;;;;;5031178;28;20506;-82
2021/12/16 09:59:10;;;;;;;14.48;8.30;;;;;;;;;;5032622;28;20053;-82
2021/12/16 10:01:37;;;;;;;14.73;8.38;;;;;;;;;;5031575;28;20050;-81
2021/12/16 10:04:06;;;;;;;13.00;7.95;;;;;;;;;;5032093;28;20108;-81
2021/12/16 10:06:36;;;;;;;14.02;8.40;;;;;;;;;;5033302;28;20069;-82
2021/12/16 10:09:06;;;;;;;13.07;7.65;;;;;;;;;;5032811;28;20463;-82
2021/12/16 10:11:33;;;;;;;13.55;7.65;;;;;;;;;;5032376;28;20054;-81
2021/12/16 10:14:05;;;;;;;13.40;8.18;;;;;;;;;;5033566;28;20449;-81
2021/12/16 10:19:21;;;;;;;19.23;9.88;;;;;;;;;;5038835;28;20082;-82
2021/12/16 10:21:48;;;;;;;14.88;7.60;;;;;;;;;;5035803;28;20049;-82
2021/12/16 10:24:23;;;;;;;15.02;8.13;;;;;;;;;;5036621;28;20079;-82
2021/12/16 10:27:07;;;;;;;15.88;6.97;;;;;;;;;;5035010;28;20804;-82
2021/12/16 10:29:38;;;;;;;18.25;8.52;;;;;;;;;;5037188;28;20038;-83
2021/12/16 10:32:40;;;;;;;13.57;7.72;;;;;;;;;;5039478;28;20050;-83
2021/12/16 10:35:11;;;;;;;16.17;8.30;;;;;;;;;;5034152;28;20049;-83
2021/12/16 10:37:50;;;;;;;14.27;7.90;;;;;;;;;;5033575;28;20108;-84
2021/12/16 10:40:28;;;;;;;14.52;9.35;;;;;;;;;;5037193;28;20053;-82
2021/12/16 10:43:03;;;;;;;16.40;9.50;;;;;;;;;;5036788;28;20041;-83
2021/12/16 10:45:33;;;;;;;12.50;7.60;;;;;;;;;;5035467;28;20049;-84
2021/12/16 10:48:10;;;;;;;12.73;8.32;;;;;;;;;;5033015;28;20057;-83
2021/12/16 10:50:54;;;;;;;14.95;7.43;;;;;;;;;;5033768;28;20072;-84
2021/12/16 10:53:47;;;;;;;14.65;8.65;;;;;;;;;;5035128;28;20146;-84
2021/12/16 10:56:18;;;;;;;16.13;7.50;;;;;;;;;;5032881;28;20065;-84
2021/12/16 10:58:54;;;;;;;15.25;8.18;;;;;;;;;;5034021;28;20100;-84
2021/12/16 11:01:34;;;;;;;13.55;7.97;;;;;;;;;;5034627;28;20050;-83
2021/12/16 11:04:18;;;;;;;14.18;8.52;;;;;;;;;;5033581;28;20054;-82
2021/12/16 11:06:49;;;;;;;14.95;8.13;;;;;;;;;;5033691;28;20049;-82
2021/12/16 11:09:43;;;;;;;13.80;8.43;;;;;;;;;;5035037;28;20139;-84
2021/12/16 11:12:23;;;;;;;19.33;10.00;;;;;;;;;;5035283;28;20042;-83
2021/12/16 11:14:54;;;;;;;16.23;8.80;;;;;;;;;;5034593;28;20133;-83
2021/12/16 11:17:23;;;;;;;17.33;9.75;;;;;;;;;;5034872;28;20410;-82
2021/12/16 11:19:59;;;;;;;20.73;11.55;;;;;;;;;;5032917;28;20063;-82
2021/12/16 11:22:31;;;;;;;20.05;9.70;;;;;;;;;;5033737;28;20136;-81
2021/12/16 11:24:59;;;;;;;30.85;11.02;;;;;;;;;;5037728;28;20045;-81
2021/12/16 11:27:32;;;;;;;24.13;12.50;;;;;;;;;;5031980;28;20050;-81
2021/12/16 11:30:20;;;;;;;20.38;11.52;;;;;;;;;;5035560;28;20096;-81
2021/12/16 11:32:53;;;;;;;37.42;11.43;;;;;;;;;;5035195;28;20107;-80
2021/12/16 11:35:33;;;;;;;19.42;9.98;;;;;;;;;;5032698;28;20077;-80
2021/12/16 11:38:13;;;;;;;19.17;8.57;;;;;;;;;;5034443;28;20544;-81
2021/12/16 11:40:56;;;;;;;16.45;8.95;;;;;;;;;;5031368;28;20045;-81
2021/12/16 11:43:35;;;;;;;16.23;8.50;;;;;;;;;;5029383;28;20054;-81
2021/12/16 11:46:06;;;;;;;15.02;9.05;;;;;;;;;;5033710;28;20611;-82
2021/12/16 11:48:40;;;;;;;14.80;7.68;;;;;;;;;;5033912;28;20091;-84
2021/12/16 11:51:21;;;;;;;15.65;9.25;;;;;;;;;;5034735;28;20041;-83
2021/12/16 11:54:09;;;;;;;;;;;;;;;;;;;;;
2021/12/16 11:56:53;;;;;;;15.82;8.52;;;;;;;;;;5036099;28;20144;-83
2021/12/16 11:59:29;;;;;;;15.23;7.88;;;;;;;;;;5034362;28;20807;-82
2021/12/16 12:01:59;;;;;;;14.18;8.20;;;;;;;;;;5036529;28;20129;-82
2021/12/16 12:04:32;;;;;;;16.70;8.82;;;;;;;;;;5032930;28;20042;-81
2021/12/16 12:07:13;;;;;;;16.77;9.50;;;;;;;;;;5035655;28;20057;-82
2021/12/16 12:09:46;;;;;;;15.77;8.82;;;;;;;;;;5035517;28;20477;-82
2021/12/16 12:13:02;;;;;;;16.80;9.10;;;;;;;;;;5040965;28;20496;-81
2021/12/16 12:16:05;;;;;;;22.23;11.55;;;;;;;;;;4914284;28;20055;-83
2021/12/16 12:19:10;;;;;;;;;;;;;;;;;;;;;
2021/12/16 12:21:50;;;;;;;15.43;8.65;;;;;;;;;;4854995;29;20098;-81
2021/12/16 12:24:23;;;;;;;21.77;8.75;;;;;;;;;;4951569;28;20373;-84
2021/12/16 12:26:55;;;;;;;14.50;8.05;;;;;;;;;;4954799;28;20062;-83
2021/12/16 12:29:27;;;;;;;23.77;9.93;;;;;;;;;;4953793;28;20043;-83
2021/12/16 12:31:56;;;;;;;17.67;9.18;;;;;;;;;;4950278;28;20071;-81
2021/12/16 12:34:30;;;;;;;17.52;8.98;;;;;;;;;;4937035;29;20059;-83
2021/12/16 12:37:00;;;;;;;15.73;8.48;;;;;;;;;;4954607;28;20048;-82
2021/12/16 12:39:30;;;;;;;13.90;8.00;;;;;;;;;;5007389;28;20080;-82
2021/12/16 12:41:58;;;;;;;17.17;8.95;;;;;;;;;;5034080;28;20038;-82
2021/12/16 12:44:25;;;;;;;14.50;8.40;;;;;;;;;;5034789;28;20445;-82
2021/12/16 12:46:52;;;;;;;12.77;7.45;;;;;;;;;;5032256;28;20059;-81
2021/12/16 12:49:25;;;;;;;14.57;9.35;;;;;;;;;;5033205;28;20053;-82
2021/12/16 12:51:53;;;;;;;14.68;7.70;;;;;;;;;;5031369;28;20045;-82
2021/12/16 12:54:27;;;;;;;14.77;7.78;;;;;;;;;;5032858;28;20045;-81
2021/12/16 12:56:56;;;;;;;14.30;8.45;;;;;;;;;;5032527;28;20409;-82
2021/12/16 12:59:33;;;;;;;13.88;8.27;;;;;;;;;;5034422;28;20052;-81
2021/12/16 13:02:00;;;;;;;15.02;8.65;;;;;;;;;;5034975;28;20477;-83
2021/12/16 13:04:31;;;;;;;15.32;9.20;;;;;;;;;;5032451;28;20107;-81
2021/12/16 13:07:02;;;;;;;15.70;8.73;;;;;;;;;;5033977;28;20051;-81
2021/12/16 13:09:40;;;;;;;14.13;8.48;;;;;;;;;;5031785;28;20049;-82
2021/12/16 13:12:32;;;;;;;15.80;8.50;;;;;;;;;;5034556;28;20049;-82
2021/12/16 13:15:09;;;;;;;21.20;9.60;;;;;;;;;;5032700;28;20057;-81
2021/12/16 13:23:31;;;;;;;25.20;10.48;;;;;;;;;;5028813;28;20046;-81
2021/12/16 13:26:34;;;;;;;19.23;8.45;;;;;;;;;;5030905;28;20045;-81
2021/12/16 13:29:08;;;;;;;17.88;8.32;;;;;;;;;;5034550;28;20487;-80
2021/12/16 13:31:47;;;;;;;16.38;8.60;;;;;;;;;;5030295;28;20056;-82
2021/12/16 13:34:29;;;;;;;18.10;8.38;;;;;;;;;;5035124;28;20056;-81
2021/12/16 13:37:02;;;;;;;14.60;8.88;;;;;;;;;;5031241;28;20042;-81
2021/12/16 13:39:30;;;;;;;17.80;8.07;;;;;;;;;;5031358;28;20096;-81
2021/12/16 13:42:02;;;;;;;25.02;10.32;;;;;;;;;;5031489;28;20044;-81
2021/12/16 13:44:41;;;;;;;17.77;8.65;;;;;;;;;;5032207;28;20037;-84
2021/12/16 13:47:16;;;;;;;16.75;8.73;;;;;;;;;;5035671;28;20057;-83
2021/12/16 13:58:55;;;;;;;18.55;9.93;;;;;;;;;;5033008;28;20139;-79
2021/12/16 14:01:32;;;;;;;17.60;10.02;;;;;;;;;;5033839;28;20068;-81
2021/12/16 14:04:14;;;;;;;24.33;11.85;;;;;;;;;;5030692;28;20034;-81
2021/12/16 14:06:55;;;;;;;24.33;11.88;;;;;;;;;;5033107;28;20064;-81
2021/12/16 14:09:29;;;;;;;32.28;14.57;;;;;;;;;;5033734;28;20071;-81
2021/12/16 14:12:58;;;;;;;23.50;11.85;;;;;;;;;;5030269;28;20076;-80
2021/12/16 14:15:08;;;;;;;17.50;10.13;;;;;;;;;;5028106;28;20422;-80
2021/12/16 14:17:47;;;;;;;22.77;9.57;;;;;;;;;;5032582;28;20042;-80
2021/12/16 14:23:08;;;;;;;18.67;9.52;;;;;;;;;;5028855;28;20053;-82
2021/12/16 14:25:41;;;;;;;18.08;9.77;;;;;;;;;;5029950;28;20133;-81
2021/12/16 14:31:11;;;;;;;14.68;8.38;;;;;;;;;;5033972;28;20150;-81
2021/12/16 14:42:10;;;;;;;18.10;10.40;;;;;;;;;;5032358;28;20580;-81
2021/12/16 14:50:11;;;;;;;17.65;9.30;;;;;;;;;;5029099;28;20053;-80
2021/12/16 14:52:39;;;;;;;17.42;8.73;;;;;;;;;;5030983;28;20046;-80
2021/12/16 14:55:09;;;;;;;15.82;8.52;;;;;;;;;;5032258;28;20046;-80
2021/12/16 14:57:39;;;;;;;18.30;10.35;;;;;;;;;;5031361;28;20081;-82
2021/12/16 15:00:12;;;;;;;14.60;8.23;;;;;;;;;;5028613;28;20136;-81
2021/12/16 15:02:42;;;;;;;16.63;9.68;;;;;;;;;;5031682;28;20100;-81
2021/12/16 15:05:25;;;;;;;18.13;9.80;;;;;;;;;;5032891;28;20073;-81
2021/12/16 15:07:52;;;;;;;21.17;10.30;;;;;;;;;;5036570;28;20183;-81
2021/12/16 15:10:19;;;;;;;17.65;9.70;;;;;;;;;;5033695;28;20128;-81
2021/12/16 15:12:51;;;;;;;19.00;9.82;;;;;;;;;;5033175;28;20038;-82
2021/12/16 15:15:27;;;;;;;20.50;10.75;;;;;;;;;;5034955;28;20049;-81
2021/12/16 15:37:34;;;;;;;16.30;8.60;;;;;;;;;;5035203;28;19937;-80
2021/12/16 15:40:15;;;;;;;19.38;9.07;;;;;;;;;;5035145;28;20038;-80
2021/12/16 15:42:49;;;;;;;15.48;8.35;;;;;;;;;;5031647;28;20041;-81
2021/12/16 15:45:18;;;;;;;15.80;9.35;;;;;;;;;;5032118;28;20113;-80
2021/12/16 15:47:46;;;;;;;16.63;9.40;;;;;;;;;;5035154;28;20045;-80
2021/12/16 15:50:18;;;;;;;17.13;8.60;;;;;;;;;;5032849;28;20084;-80
2021/12/16 15:52:47;;;;;;;16.88;8.43;;;;;;;;;;5034368;28;20065;-82
2021/12/16 15:55:24;;;;;;;21.50;10.70;;;;;;;;;;5032598;28;20076;-82
2021/12/16 15:57:54;;;;;;;18.88;10.20;;;;;;;;;;5036868;28;20130;-82
2021/12/16 16:00:23;;;;;;;21.27;10.45;;;;;;;;;;5037514;28;20688;-82
2021/12/16 16:02:49;;;;;;;21.13;11.57;;;;;;;;;;5035890;28;20165;-80
2021/12/16 16:05:17;;;;;;;17.77;9.95;;;;;;;;;;5034074;28;20045;-83
2021/12/16 16:07:44;;;;;;;20.17;10.05;;;;;;;;;;5036443;28;20073;-82
2021/12/16 16:10:13;;;;;;;18.75;10.30;;;;;;;;;;5038416;28;20077;-81
2021/12/16 16:12:39;;;;;;;23.85;13.32;;;;;;;;;;5034915;28;20140;-81
2021/12/16 16:15:17;;;;;;;23.33;10.77;;;;;;;;;;5036217;28;20081;-84
2021/12/16 16:17:54;;;;;;;18.98;11.82;;;;;;;;;;5033092;28;20107;-81
2021/12/16 16:20:23;;;;;;;17.40;9.95;;;;;;;;;;5035305;28;20069;-80
2021/12/16 16:22:50;;;;;;;21.65;11.35;;;;;;;;;;5037338;28;20049;-80
2021/12/16 16:25:17;;;;;;;19.63;10.52;;;;;;;;;;5035466;28;20085;-82
2021/12/16 16:27:43;;;;;;;18.80;10.45;;;;;;;;;;5039654;28;20601;-82
2021/12/16 16:30:10;;;;;;;26.15;14.60;;;;;;;;;;5037462;28;20054;-80
2021/12/16 16:33:01;;;;;;;22.83;12.70;;;;;;;;;;5039530;28;20072;-80
2021/12/16 16:35:29;;;;;;;37.55;21.95;;;;;;;;;;5041699;28;20428;-81
2021/12/16 16:38:08;;;;;;;42.25;24.25;;;;;;;;;;5038416;28;20041;-79
2021/12/16 16:40:37;;;;;;;30.30;17.40;;;;;;;;;;5040761;28;20081;-80
2021/12/16 16:43:16;;;;;;;36.47;18.85;;;;;;;;;;5038302;28;20080;-80
2021/12/16 16:45:44;;;;;;;51.30;24.80;;;;;;;;;;5038558;28;20072;-84
2021/12/16 16:48:28;;;;;;;32.33;17.65;;;;;;;;;;5037734;28;20136;-80
2021/12/16 16:51:05;;;;;;;41.38;18.83;;;;;;;;;;5034785;28;20389;-81
2021/12/16 16:53:32;;;;;;;35.63;18.85;;;;;;;;;;5034860;28;20816;-82
2021/12/16 16:55:59;;;;;;;36.15;19.65;;;;;;;;;;5035994;28;20049;-81
2021/12/16 16:58:25;;;;;;;31.70;16.85;;;;;;;;;;5038182;28;20056;-81
2021/12/16 17:00:52;;;;;;;27.50;13.63;;;;;;;;;;5036997;28;20065;-83
2021/12/16 17:03:21;;;;;;;26.58;13.30;;;;;;;;;;5034164;28;20049;-82
2021/12/16 17:05:52;;;;;;;23.00;12.40;;;;;;;;;;5034799;28;20398;-81
2021/12/16 17:08:24;;;;;;;24.45;12.52;;;;;;;;;;5030589;28;20081;-79
2021/12/16 17:10:55;;;;;;;26.80;13.85;;;;;;;;;;5032101;28;20045;-81
2021/12/16 17:13:35;;;;;;;22.02;10.60;;;;;;;;;;5034915;28;20064;-82
2021/12/16 17:18:51;;;;;;;22.75;10.07;;;;;;;;;;5031766;28;20059;-81
2021/12/16 17:21:20;;;;;;;19.02;10.43;;;;;;;;;;5033714;28;20084;-82
2021/12/16 17:23:51;;;;;;;20.75;10.68;;;;;;;;;;5031960;28;20382;-82
2021/12/16 17:26:23;;;;;;;20.73;10.43;;;;;;;;;;5032581;28;20095;-82
2021/12/16 17:28:52;;;;;;;22.88;11.75;;;;;;;;;;5030321;28;20738;-81
2021/12/16 17:31:30;;;;;;;20.92;10.80;;;;;;;;;;5030165;28;20514;-81
2021/12/16 17:34:09;;;;;;;29.85;10.57;;;;;;;;;;5032916;28;20142;-81
2021/12/16 17:36:36;;;;;;;40.63;13.30;;;;;;;;;;5030386;28;20141;-81
2021/12/16 17:39:13;;;;;;;36.28;12.65;;;;;;;;;;5033183;28;20061;-82
2021/12/16 17:41:40;;;;;;;42.88;11.43;;;;;;;;;;5034424;28;20046;-80
2021/12/16 17:44:12;;;;;;;27.63;12.77;;;;;;;;;;5034804;28;20077;-80